Time;durP1;ratioP1;P1;durP2;ratioP2;P2;SDS_P1;SDS_P2;PMS_P1;PMS_P2;Temp;Humidity;BMP_temperature;BMP_pressure;BME280_temperature;BME280_humidity;BME280_pressure;Samples;Min_cycle;Max_cycle;Signal;HPM_P1;HPM_P2
2021/04/07 00:01:14;;;;;;;9.95;2.50;;;;;;;1.25;58.94;98569.94;3500974;41;20123;-64
2021/04/07 00:03:41;;;;;;;4.82;2.38;;;;;;;1.21;59.51;98577.19;3501035;41;20084;-64
2021/04/07 00:06:08;;;;;;;2.72;1.90;;;;;;;1.28;59.72;98582.69;3501107;41;20056;-64
2021/04/07 00:08:36;;;;;;;3.47;2.20;;;;;;;1.28;59.49;98592.28;3501105;41;20084;-65
2021/04/07 00:11:03;;;;;;;3.83;2.10;;;;;;;1.29;59.66;98586.09;3500836;41;20490;-64
2021/04/07 00:13:30;;;;;;;5.90;2.42;;;;;;;1.34;59.66;98589.09;3501375;41;20176;-64
2021/04/07 00:15:58;;;;;;;5.88;2.65;;;;;;;1.29;59.81;98586.09;3500070;41;20323;-64
2021/04/07 00:18:24;;;;;;;4.20;2.28;;;;;;;1.29;59.86;98597.34;3500739;41;20088;-64
2021/04/07 00:20:51;;;;;;;3.17;2.08;;;;;;;1.31;59.98;98594.63;3500044;41;20052;-64
2021/04/07 00:23:18;;;;;;;4.68;2.15;;;;;;;1.31;60.05;98602.44;3500796;41;20056;-64
2021/04/07 00:25:45;;;;;;;3.72;2.20;;;;;;;1.24;60.11;98602.97;3500998;41;20052;-64
2021/04/07 00:28:12;;;;;;;2.38;1.90;;;;;;;1.24;60.37;98602.97;3501746;41;20084;-64
2021/04/07 00:30:39;;;;;;;3.58;2.22;;;;;;;1.21;60.40;98592.81;3501653;41;20048;-64
2021/04/07 00:33:07;;;;;;;5.25;2.38;;;;;;;1.30;60.45;98601.56;3501964;41;20052;-64
2021/04/07 00:35:35;;;;;;;6.43;2.20;;;;;;;1.33;60.46;98603.09;3504744;41;20068;-63
2021/04/07 00:38:02;;;;;;;4.03;2.20;;;;;;;1.41;60.16;98601.44;3504866;41;20040;-64
2021/04/07 00:40:29;;;;;;;4.10;2.22;;;;;;;1.45;60.23;98602.81;3506260;41;20036;-64
2021/04/07 00:42:55;;;;;;;5.57;2.33;;;;;;;1.47;60.18;98602.69;3513696;41;20024;-63
2021/04/07 00:45:23;;;;;;;3.92;2.35;;;;;;;1.38;60.28;98608.69;3513736;41;20028;-61
2021/04/07 00:47:51;;;;;;;4.70;2.40;;;;;;;1.39;60.20;98600.78;3513789;41;20052;-63
2021/04/07 00:50:21;;;;;;;5.50;2.53;;;;;;;1.36;60.11;98605.44;3510043;41;20032;-63
2021/04/07 00:52:50;;;;;;;2.70;2.10;;;;;;;1.33;60.09;98603.91;3500700;41;20064;-64
2021/04/07 00:55:22;;;;;;;5.57;2.65;;;;;;;1.41;60.18;98614.47;3499617;41;20108;-64
2021/04/07 00:57:50;;;;;;;5.07;2.30;;;;;;;1.33;59.98;98622.16;3507990;41;20127;-64
2021/04/07 01:00:19;;;;;;;2.67;2.05;;;;;;;1.26;60.09;98618.44;3500448;41;20053;-64
2021/04/07 01:02:46;;;;;;;4.53;2.15;;;;;;;1.23;60.11;98622.16;3500506;41;20061;-64
2021/04/07 01:05:14;;;;;;;3.88;2.58;;;;;;;1.28;60.05;98624.34;3499730;41;20424;-64
2021/04/07 01:07:41;;;;;;;3.30;2.17;;;;;;;1.24;60.07;98621.19;3500575;41;20517;-64
2021/04/07 01:10:11;;;;;;;3.95;2.10;;;;;;;1.23;60.01;98627.38;3500444;41;20041;-64
2021/04/07 01:12:38;;;;;;;4.05;1.90;;;;;;;1.26;60.13;98633.25;3500372;41;20395;-64
2021/04/07 01:15:07;;;;;;;4.85;2.25;;;;;;;1.14;59.93;98629.97;3500471;41;20085;-63
2021/04/07 01:17:33;;;;;;;2.28;1.98;;;;;;;1.10;60.26;98641.59;3499470;41;20064;-63
2021/04/07 01:20:02;;;;;;;4.30;2.42;;;;;;;1.19;60.21;98641.63;3500095;41;20049;-64
2021/04/07 01:22:32;;;;;;;4.28;2.00;;;;;;;1.15;60.19;98653.28;3500488;41;20340;-64
2021/04/07 01:25:00;;;;;;;5.28;2.38;;;;;;;1.17;60.11;98647.91;3500277;41;20052;-64
2021/04/07 01:27:26;;;;;;;2.90;2.00;;;;;;;1.13;59.96;98649.16;3500463;41;20049;-63
2021/04/07 01:29:53;;;;;;;4.75;2.28;;;;;;;1.12;60.22;98644.91;3500422;41;20061;-65
2021/04/07 01:32:20;;;;;;;3.72;2.40;;;;;;;1.07;60.38;98647.09;3500641;41;20080;-63
2021/04/07 01:34:47;;;;;;;2.78;1.98;;;;;;;1.09;60.45;98653.81;3500644;41;20092;-65
2021/04/07 01:37:15;;;;;;;4.35;2.13;;;;;;;1.13;60.26;98647.38;3502043;41;20048;-63
2021/04/07 01:39:42;;;;;;;1.88;1.77;;;;;;;1.20;59.79;98652.84;3501805;41;20352;-64
2021/04/07 01:42:11;;;;;;;5.15;2.50;;;;;;;1.16;59.78;98654.91;3501791;41;20404;-64
2021/04/07 01:44:39;;;;;;;2.38;2.15;;;;;;;1.13;59.90;98647.38;3501722;41;20327;-64
2021/04/07 01:47:07;;;;;;;2.50;1.95;;;;;;;1.15;59.87;98652.44;3501730;41;20056;-64
2021/04/07 01:49:34;;;;;;;3.75;2.28;;;;;;;1.15;60.01;98657.66;3501790;41;20057;-64
2021/04/07 01:52:02;;;;;;;2.53;2.03;;;;;;;1.12;59.77;98656.13;3501793;41;20075;-64
2021/04/07 01:54:28;;;;;;;4.45;2.17;;;;;;;1.19;59.77;98659.03;3501991;41;20085;-64
2021/04/07 01:56:56;;;;;;;4.78;2.38;;;;;;;1.20;59.53;98655.47;3502563;41;20056;-64
2021/04/07 01:59:25;;;;;;;4.13;2.15;;;;;;;1.27;59.34;98666.16;3502839;41;20057;-65
2021/04/07 02:01:53;;;;;;;2.45;2.00;;;;;;;1.23;59.07;98663.81;3505179;41;20063;-66
2021/04/07 02:04:21;;;;;;;3.92;2.60;;;;;;;1.20;59.18;98658.88;3505070;41;20052;-65
2021/04/07 02:06:55;;;;;;;6.55;1.90;;;;;;;1.19;58.84;98662.47;3507819;41;20417;-64
2021/04/07 02:09:22;;;;;;;4.30;1.70;;;;;;;1.19;58.72;98662.47;3507057;41;20047;-64
2021/04/07 02:11:51;;;;;;;2.85;2.10;;;;;;;1.20;58.79;98668.47;3506428;41;20503;-63
2021/04/07 02:14:19;;;;;;;5.32;2.40;;;;;;;1.23;58.61;98665.63;3504843;41;20301;-64
2021/04/07 02:16:52;;;;;;;5.63;2.08;;;;;;;1.22;58.91;98671.75;3510492;41;20080;-64
2021/04/07 02:19:19;;;;;;;2.72;1.95;;;;;;;1.21;58.93;98672.72;3503004;41;20055;-63
2021/04/07 02:21:47;;;;;;;3.85;2.13;;;;;;;1.14;59.13;98679.44;3502757;41;20047;-64
2021/04/07 02:24:14;;;;;;;3.13;2.00;;;;;;;1.14;59.42;98675.06;3500677;41;20063;-64
2021/04/07 02:26:40;;;;;;;5.95;2.20;;;;;;;1.14;59.48;98679.44;3501901;41;20060;-64
2021/04/07 02:29:07;;;;;;;2.85;2.22;;;;;;;1.10;59.57;98676.28;3501679;41;20348;-64
2021/04/07 02:31:34;;;;;;;2.50;2.25;;;;;;;0.97;59.86;98680.91;3500457;41;20053;-64
2021/04/07 02:34:02;;;;;;;3.15;2.08;;;;;;;1.03;60.00;98679.56;3500650;41;20089;-63
2021/04/07 02:36:28;;;;;;;4.22;2.25;;;;;;;1.01;59.50;98676.25;3501451;41;20060;-64
2021/04/07 02:38:55;;;;;;;4.57;2.67;;;;;;;1.04;59.77;98686.41;3501594;41;20067;-63
2021/04/07 02:41:22;;;;;;;4.78;2.58;;;;;;;1.06;59.77;98684.47;3501471;41;20056;-64
2021/04/07 02:43:48;;;;;;;7.68;2.60;;;;;;;1.02;59.41;98688.31;3501637;41;20084;-64
2021/04/07 02:46:16;;;;;;;4.38;2.17;;;;;;;0.91;59.89;98695.31;3501329;41;20057;-63
2021/04/07 02:48:43;;;;;;;3.20;2.20;;;;;;;0.84;59.84;98703.78;3501976;41;20058;-63
2021/04/07 02:51:11;;;;;;;2.40;2.20;;;;;;;0.83;59.75;98696.94;3502613;41;20108;-64
2021/04/07 02:53:38;;;;;;;3.25;2.30;;;;;;;0.74;59.89;98691.56;3502308;41;20059;-64
2021/04/07 02:56:05;;;;;;;5.88;2.35;;;;;;;0.72;60.22;98698.66;3503311;41;20056;-64
2021/04/07 02:58:32;;;;;;;2.58;2.20;;;;;;;0.76;59.79;98703.63;3513502;41;20050;-64
2021/04/07 03:00:59;;;;;;;3.97;2.50;;;;;;;0.72;59.81;98703.06;3506862;41;20048;-64
2021/04/07 03:03:26;;;;;;;3.45;2.45;;;;;;;0.76;59.86;98707.03;3507306;41;20364;-64
2021/04/07 03:05:53;;;;;;;5.45;2.45;;;;;;;0.80;59.72;98710.19;3506816;41;20056;-64
2021/04/07 03:08:20;;;;;;;3.10;2.30;;;;;;;0.77;59.82;98706.06;3505855;41;20044;-64
2021/04/07 03:10:47;;;;;;;3.88;2.35;;;;;;;0.78;59.81;98712.13;3554109;23;20045;-64
2021/04/07 03:13:13;;;;;;;4.55;2.38;;;;;;;0.76;59.51;98712.25;3491483;41;20057;-65
2021/04/07 03:15:40;;;;;;;5.47;2.47;;;;;;;0.71;59.59;98723.03;3490576;41;20045;-65
2021/04/07 03:18:07;;;;;;;3.55;2.50;;;;;;;0.68;59.78;98728.50;3491784;41;20053;-65
2021/04/07 03:20:34;;;;;;;3.35;2.10;;;;;;;0.60;59.73;98735.31;3491775;41;20045;-65
2021/04/07 03:23:00;;;;;;;5.43;3.35;;;;;;;0.62;60.04;98739.47;3491535;41;20055;-65
2021/04/07 03:25:30;;;;;;;3.33;2.03;;;;;;;0.60;59.86;98751.75;3491645;41;20063;-65
2021/04/07 03:27:57;;;;;;;3.55;2.20;;;;;;;0.56;59.68;98750.38;3491623;41;20393;-65
2021/04/07 03:30:23;;;;;;;5.70;2.42;;;;;;;0.52;59.68;98753.34;3491426;41;20416;-65
2021/04/07 03:32:50;;;;;;;7.82;2.40;;;;;;;0.41;59.66;98756.88;3490640;41;20056;-64
2021/04/07 03:35:17;;;;;;;3.05;2.08;;;;;;;0.40;59.64;98758.63;3491233;41;20041;-65
2021/04/07 03:37:43;;;;;;;3.78;2.08;;;;;;;0.32;59.39;98761.06;3490672;41;20088;-64
2021/04/07 03:40:11;;;;;;;3.75;1.90;;;;;;;0.33;59.36;98772.31;3491745;41;20096;-65
2021/04/07 03:42:39;;;;;;;2.40;1.75;;;;;;;0.34;59.26;98766.16;3491431;41;20416;-65
2021/04/07 03:45:06;;;;;;;4.00;2.05;;;;;;;0.35;59.12;98760.00;3491611;41;20397;-65
2021/04/07 03:47:35;;;;;;;3.97;1.95;;;;;;;0.37;58.87;98768.50;3491604;41;20061;-65
2021/04/07 03:50:03;;;;;;;5.97;2.08;;;;;;;0.38;58.69;98778.75;3491509;41;20301;-65
2021/04/07 03:52:30;;;;;;;4.53;2.00;;;;;;;0.49;58.76;98780.47;3491599;41;20052;-65
2021/04/07 03:54:58;;;;;;;5.72;2.72;;;;;;;0.56;58.57;98773.78;3490604;41;20049;-64
2021/04/07 03:57:27;;;;;;;2.72;2.00;;;;;;;0.53;58.17;98783.63;3490810;41;20081;-64
2021/04/07 03:59:55;;;;;;;5.65;2.17;;;;;;;0.50;58.17;98782.13;3491601;41;20061;-65
2021/04/07 04:02:21;;;;;;;4.53;1.83;;;;;;;0.44;58.11;98774.81;3491655;41;20065;-65
2021/04/07 04:04:48;;;;;;;4.00;2.03;;;;;;;0.44;58.29;98778.22;3490431;41;20049;-65
2021/04/07 04:07:15;;;;;;;5.60;2.30;;;;;;;0.49;58.57;98778.69;3491452;41;20029;-65
2021/04/07 04:09:41;;;;;;;3.92;2.25;;;;;;;0.49;58.41;98783.91;3493588;41;20089;-65
2021/04/07 04:12:08;;;;;;;7.35;2.47;;;;;;;0.53;58.35;98789.66;3493847;41;20049;-65
2021/04/07 04:14:37;;;;;;;4.88;2.35;;;;;;;0.55;58.16;98792.13;3495358;41;20068;-65
2021/04/07 04:17:05;;;;;;;7.00;2.22;;;;;;;0.62;58.38;98794.09;3495819;41;20420;-65
2021/04/07 04:19:31;;;;;;;5.30;1.95;;;;;;;0.61;58.15;98795.03;3495931;41;20053;-64
2021/04/07 04:21:58;;;;;;;7.43;1.90;;;;;;;0.63;58.07;98807.91;3496097;41;20084;-66
2021/04/07 04:24:25;;;;;;;6.47;2.30;;;;;;;0.59;58.07;98816.94;3496915;41;20057;-64
2021/04/07 04:26:52;;;;;;;7.65;2.03;;;;;;;0.58;57.99;98817.88;3496400;41;20052;-64
2021/04/07 04:29:18;;;;;;;3.03;1.95;;;;;;;0.55;57.94;98815.53;3496374;41;20056;-65
2021/04/07 04:31:45;;;;;;;5.72;1.90;;;;;;;0.57;58.07;98821.41;3496729;41;20088;-65
2021/04/07 04:34:13;;;;;;;6.07;2.55;;;;;;;0.54;57.84;98819.91;3496389;41;20373;-67
2021/04/07 04:36:39;;;;;;;5.43;2.00;;;;;;;0.57;57.61;98829.22;3496661;41;20064;-65
2021/04/07 04:39:06;;;;;;;3.13;2.08;;;;;;;0.56;58.01;98828.41;3494061;41;20049;-66
2021/04/07 04:41:33;;;;;;;4.07;2.03;;;;;;;0.55;57.92;98826.75;3492973;41;20436;-66
2021/04/07 04:44:00;;;;;;;5.40;2.58;;;;;;;0.44;58.08;98830.25;3492878;41;20415;-65
2021/04/07 04:46:26;;;;;;;6.57;2.40;;;;;;;0.40;58.23;98834.06;3493916;41;20096;-65
2021/04/07 04:48:53;;;;;;;5.90;2.00;;;;;;;0.41;58.10;98832.31;3494505;41;20053;-65
2021/04/07 04:51:21;;;;;;;6.38;2.35;;;;;;;0.44;58.17;98829.44;3494016;41;20051;-65
2021/04/07 04:53:47;;;;;;;6.40;2.67;;;;;;;0.41;58.38;98842.72;3494714;41;20440;-65
2021/04/07 04:56:14;;;;;;;5.25;2.17;;;;;;;0.36;58.27;98843.06;3494135;41;20072;-65
2021/04/07 04:58:40;;;;;;;2.97;2.42;;;;;;;0.38;58.22;98853.34;3492805;41;20053;-65
2021/04/07 05:01:09;;;;;;;6.90;2.60;;;;;;;0.35;58.49;98853.59;3493717;41;20057;-65
2021/04/07 05:03:36;;;;;;;5.20;2.33;;;;;;;0.35;58.74;98857.03;3492539;41;20498;-64
2021/04/07 05:06:06;;;;;;;4.57;2.15;;;;;;;0.33;58.54;98863.31;3491286;41;20085;-64
2021/04/07 05:08:34;;;;;;;3.58;2.17;;;;;;;0.34;58.48;98860.59;3491369;41;20093;-65
2021/04/07 05:11:00;;;;;;;5.30;2.10;;;;;;;0.40;58.68;98862.66;3492602;41;20037;-67
2021/04/07 05:13:27;;;;;;;5.25;1.92;;;;;;;0.40;58.62;98865.25;3492408;41;20088;-65
2021/04/07 05:15:54;;;;;;;3.17;1.85;;;;;;;0.41;58.77;98860.91;3492005;41;20101;-65
2021/04/07 05:18:22;;;;;;;6.78;2.20;;;;;;;0.47;58.53;98866.41;3491283;41;20060;-65
2021/04/07 05:20:49;;;;;;;3.08;2.25;;;;;;;0.58;58.54;98868.13;3493528;41;20457;-65
2021/04/07 05:23:15;;;;;;;7.68;2.72;;;;;;;0.65;58.42;98871.03;3493473;41;20044;-64
2021/04/07 05:25:43;;;;;;;5.25;2.15;;;;;;;0.73;58.39;98873.81;3492551;41;20411;-64
2021/04/07 05:28:09;;;;;;;7.20;2.40;;;;;;;0.80;58.34;98874.16;3494397;41;20081;-64
2021/04/07 05:33:21;;;;;;;;;;;;;;;0.94;57.82;98892.88;3496484;41;20076;-65
2021/04/07 05:35:48;;;;;;;3.63;2.13;;;;;;;1.00;57.89;98896.72;3495819;41;19936;-65
2021/04/07 05:38:17;;;;;;;9.77;2.85;;;;;;;1.09;57.50;98902.91;3495993;41;20419;-65
2021/04/07 05:40:44;;;;;;;7.68;2.08;;;;;;;1.13;57.22;98899.94;3494888;41;20064;-65
2021/04/07 05:43:12;;;;;;;6.97;2.40;;;;;;;1.14;56.94;98911.16;3495712;41;20137;-65
2021/04/07 05:45:39;;;;;;;5.70;2.63;;;;;;;1.14;56.77;98908.56;3494474;41;20053;-65
2021/04/07 05:48:07;;;;;;;4.32;2.53;;;;;;;1.07;56.96;98915.25;3495149;41;20065;-65
2021/04/07 05:50:36;;;;;;;5.90;2.83;;;;;;;1.13;56.93;98917.31;3494885;41;20405;-65
2021/04/07 05:53:03;;;;;;;5.00;2.22;;;;;;;1.17;56.78;98921.31;3493470;41;20049;-66
2021/04/07 05:55:30;;;;;;;5.00;2.30;;;;;;;1.24;56.91;98925.88;3494863;41;20105;-67
2021/04/07 05:57:59;;;;;;;8.02;2.22;;;;;;;1.23;56.98;98926.84;3494730;41;20053;-65
2021/04/07 06:00:27;;;;;;;4.65;2.55;;;;;;;1.24;56.79;98925.06;3494685;41;20033;-64
2021/04/07 06:02:55;;;;;;;6.90;2.65;;;;;;;1.35;56.74;98924.16;3493927;41;20397;-67
2021/04/07 06:05:23;;;;;;;8.07;3.17;;;;;;;1.42;56.40;98930.47;3494400;41;20045;-65
2021/04/07 06:07:50;;;;;;;5.47;2.47;;;;;;;1.31;56.29;98943.59;3491401;41;20056;-64
2021/04/07 06:10:17;;;;;;;7.40;2.45;;;;;;;1.28;56.29;98938.66;3492067;41;20578;-65
2021/04/07 06:12:44;;;;;;;5.65;2.38;;;;;;;1.34;56.39;98943.31;3492090;41;20049;-65
2021/04/07 06:15:13;;;;;;;3.85;2.70;;;;;;;1.41;56.39;98952.28;3492279;41;20088;-65
2021/04/07 06:17:41;;;;;;;4.20;2.47;;;;;;;1.35;56.65;98948.44;3492294;41;20443;-65
2021/04/07 06:20:11;;;;;;;4.82;2.30;;;;;;;1.44;56.43;98937.22;3490931;41;20049;-64
2021/04/07 06:22:38;;;;;;;5.47;2.85;;;;;;;1.58;56.28;98945.63;3492333;41;20072;-65
2021/04/07 06:25:06;;;;;;;5.32;2.83;;;;;;;1.58;55.84;98937.81;3491019;41;20049;-65
2021/04/07 06:27:33;;;;;;;6.63;3.15;;;;;;;1.57;55.94;98942.19;3491814;41;20052;-65
2021/04/07 06:30:00;;;;;;;5.88;2.63;;;;;;;1.57;55.80;98946.59;3491902;41;20097;-66
2021/04/07 06:32:29;;;;;;;6.78;2.88;;;;;;;1.52;55.79;98944.38;3492259;41;20061;-65
2021/04/07 06:34:56;;;;;;;8.07;3.42;;;;;;;1.58;55.61;98949.03;3491976;41;20419;-65
2021/04/07 06:37:22;;;;;;;5.05;2.50;;;;;;;1.65;55.33;98957.16;3493343;41;20056;-65
2021/04/07 06:39:49;;;;;;;4.20;2.63;;;;;;;1.85;55.41;98961.50;3494969;41;20061;-64
2021/04/07 06:42:16;;;;;;;4.22;2.90;;;;;;;2.10;54.93;98967.16;3494630;41;20053;-64
2021/04/07 06:44:43;;;;;;;6.18;3.15;;;;;;;2.17;54.25;98952.63;3495517;41;20100;-64
2021/04/07 06:47:12;;;;;;;4.38;3.30;;;;;;;2.34;54.22;98959.78;3492679;41;20053;-64
2021/04/07 06:49:41;;;;;;;6.15;3.03;;;;;;;2.34;53.86;98962.41;3493926;41;20049;-65
2021/04/07 06:52:18;;;;;;;5.38;3.47;;;;;;;2.31;53.63;98967.06;3494471;41;20053;-64
2021/04/07 06:54:46;;;;;;;6.18;2.67;;;;;;;2.43;53.59;98969.41;3492345;41;20064;-65
2021/04/07 06:57:15;;;;;;;6.38;3.45;;;;;;;2.56;53.26;98968.31;3492027;41;20059;-65
2021/04/07 06:59:43;;;;;;;4.60;2.90;;;;;;;2.51;53.35;98975.72;3491038;41;20053;-65
2021/04/07 07:02:11;;;;;;;6.82;3.08;;;;;;;2.34;53.00;98967.59;3491601;41;20085;-65
2021/04/07 07:04:38;;;;;;;5.50;2.65;;;;;;;2.37;53.15;98980.38;3490654;41;20055;-64
2021/04/07 07:07:06;;;;;;;6.20;3.53;;;;;;;2.34;53.07;98974.63;3490869;41;20385;-69
2021/04/07 07:09:33;;;;;;;8.05;2.95;;;;;;;2.10;53.27;98993.25;3491020;41;20085;-64
2021/04/07 07:12:01;;;;;;;7.40;3.20;;;;;;;2.05;53.49;98990.22;3491954;41;20085;-65
2021/04/07 07:14:28;;;;;;;5.97;3.15;;;;;;;1.99;53.58;98991.56;3491666;41;20093;-65
2021/04/07 07:16:56;;;;;;;4.75;3.40;;;;;;;2.16;53.78;99001.38;3491688;41;20061;-65
2021/04/07 07:19:25;;;;;;;5.32;3.63;;;;;;;2.38;53.55;98992.47;3490487;41;20068;-64
2021/04/07 07:21:53;;;;;;;11.18;3.83;;;;;;;2.26;53.20;98998.78;3492259;41;20057;-65
2021/04/07 07:24:32;;;;;;;6.32;3.47;;;;;;;2.06;53.58;99012.72;3493024;41;20053;-65
2021/04/07 07:26:59;;;;;;;8.50;3.55;;;;;;;2.21;53.80;99008.78;3492968;41;20064;-67
2021/04/07 07:29:28;;;;;;;5.45;3.30;;;;;;;2.11;53.64;99006.13;3493202;41;20053;-64
2021/04/07 07:31:58;;;;;;;7.40;3.50;;;;;;;2.19;53.77;99021.13;3493832;41;20071;-65
2021/04/07 07:34:26;;;;;;;6.10;3.33;;;;;;;2.05;53.76;99016.31;3493362;41;20029;-64
2021/04/07 07:36:53;;;;;;;7.13;3.50;;;;;;;2.16;53.96;99016.16;3494731;41;20045;-64
2021/04/07 07:39:24;;;;;;;7.00;3.50;;;;;;;2.30;53.69;99017.59;3494581;41;20052;-63
2021/04/07 07:41:56;;;;;;;10.00;4.43;;;;;;;2.56;53.67;99023.09;3493390;41;20061;-66
2021/04/07 07:44:23;;;;;;;8.75;3.75;;;;;;;2.60;53.19;99022.69;3491897;41;20059;-67
2021/04/07 07:46:56;;;;;;;7.63;4.18;;;;;;;2.77;52.98;99017.75;3493183;41;20112;-63
2021/04/07 07:49:23;;;;;;;10.30;4.38;;;;;;;2.86;52.28;99019.56;3494117;41;20089;-66
2021/04/07 07:51:50;;;;;;;11.13;4.28;;;;;;;3.03;52.16;99016.25;3493011;41;20053;-65
2021/04/07 07:54:19;;;;;;;7.97;4.00;;;;;;;2.93;52.12;99023.25;3494677;41;20053;-64
2021/04/07 07:56:46;;;;;;;7.35;3.70;;;;;;;2.80;52.24;99033.16;3496869;41;20055;-65
2021/04/07 07:59:24;;;;;;;6.43;3.20;;;;;;;2.78;51.85;99016.81;3497956;41;20033;-67
2021/04/07 08:01:51;;;;;;;8.20;3.45;;;;;;;3.09;52.13;99022.69;3498664;41;20059;-65
2021/04/07 08:04:18;;;;;;;6.93;3.75;;;;;;;3.13;51.73;99035.31;3495579;41;20054;-66
2021/04/07 08:06:45;;;;;;;8.55;3.28;;;;;;;3.17;51.57;99033.25;3491432;41;20081;-65
2021/04/07 08:09:13;;;;;;;9.80;3.63;;;;;;;3.15;51.35;99022.13;3495498;41;20397;-66
2021/04/07 08:11:43;;;;;;;7.25;3.53;;;;;;;3.20;51.49;99023.34;3494305;41;20317;-65
2021/04/07 08:14:14;;;;;;;11.38;4.25;;;;;;;3.14;51.47;99021.31;3493063;41;20074;-66
2021/04/07 08:16:42;;;;;;;5.57;3.22;;;;;;;3.10;51.31;99029.53;3493957;41;20108;-64
2021/04/07 08:19:11;;;;;;;7.85;3.17;;;;;;;3.05;51.35;99027.34;3493932;41;20088;-64
2021/04/07 08:21:39;;;;;;;11.43;3.53;;;;;;;3.20;52.37;99033.00;3492668;41;20152;-63
2021/04/07 08:24:08;;;;;;;6.53;3.30;;;;;;;3.18;51.74;99027.06;3493093;41;20029;-65
2021/04/07 08:26:37;;;;;;;12.40;3.42;;;;;;;3.17;51.49;99028.84;3493184;41;20025;-64
2021/04/07 08:29:04;;;;;;;9.52;3.05;;;;;;;3.11;51.35;99029.44;3493818;41;20060;-65
2021/04/07 08:31:33;;;;;;;12.82;3.63;;;;;;;2.96;51.44;99038.66;3493840;41;20040;-64
2021/04/07 08:34:03;;;;;;;8.57;3.28;;;;;;;3.01;51.69;99040.84;3493665;41;20052;-65
2021/04/07 08:36:31;;;;;;;9.25;3.00;;;;;;;3.02;51.24;99032.88;3493691;41;20104;-65
2021/04/07 08:39:04;;;;;;;9.10;3.08;;;;;;;3.11;51.34;99034.66;3494593;41;20056;-64
2021/04/07 08:41:32;;;;;;;12.15;3.58;;;;;;;3.27;51.30;99041.91;3494005;41;20093;-64
2021/04/07 08:44:00;;;;;;;6.20;2.53;;;;;;;3.16;51.03;99049.91;3494413;41;20333;-64
2021/04/07 08:46:29;;;;;;;10.23;3.50;;;;;;;3.21;51.18;99039.84;3493364;41;20060;-64
2021/04/07 08:48:56;;;;;;;14.55;3.60;;;;;;;3.46;51.32;99051.50;3493973;41;20112;-65
2021/04/07 08:51:26;;;;;;;5.75;3.00;;;;;;;3.54;50.70;99056.84;3495050;41;20056;-64
2021/04/07 08:53:57;;;;;;;8.55;2.95;;;;;;;3.58;50.78;99047.75;3494993;41;20076;-65
2021/04/07 08:56:26;;;;;;;8.60;3.50;;;;;;;3.79;50.58;99052.78;3493574;41;20049;-63
2021/04/07 08:58:55;;;;;;;7.20;3.38;;;;;;;3.79;50.28;99059.78;3494891;41;20045;-65
2021/04/07 09:01:24;;;;;;;12.85;3.45;;;;;;;3.93;50.16;99048.88;3494109;41;20046;-64
2021/04/07 09:04:04;;;;;;;8.80;3.53;;;;;;;4.03;49.53;99051.44;3495013;41;20092;-65
2021/04/07 09:06:31;;;;;;;7.57;3.05;;;;;;;3.98;49.34;99064.97;3494053;41;20060;-65
2021/04/07 09:08:58;;;;;;;9.88;3.45;;;;;;;4.04;49.79;99060.94;3493090;41;20049;-67
2021/04/07 09:11:30;;;;;;;7.72;3.00;;;;;;;3.94;49.57;99053.97;3545089;23;20320;-64
2021/04/07 09:14:00;;;;;;;15.43;3.60;;;;;;;4.20;49.56;99050.66;3490907;41;20064;-63
2021/04/07 09:16:39;;;;;;;7.60;3.25;;;;;;;4.28;49.05;99060.41;3497877;41;20057;-63
2021/04/07 09:19:20;;;;;;;9.30;3.30;;;;;;;4.19;48.81;99059.50;3491336;41;20057;-64
2021/04/07 09:22:00;;;;;;;8.52;3.28;;;;;;;4.36;48.64;99050.84;3490876;41;20041;-64
2021/04/07 09:24:34;;;;;;;10.45;2.75;;;;;;;4.31;48.20;99047.84;3489790;41;20059;-65
2021/04/07 09:27:01;;;;;;;8.82;3.70;;;;;;;4.34;48.46;99046.75;3490950;41;20056;-65
2021/04/07 09:29:28;;;;;;;8.02;2.70;;;;;;;4.33;48.16;99048.56;3490786;41;20049;-65
2021/04/07 09:31:55;;;;;;;14.05;3.10;;;;;;;4.33;47.75;99050.34;3490657;41;20071;-65
2021/04/07 09:34:24;;;;;;;9.57;3.70;;;;;;;4.29;47.92;99055.03;3490506;41;20052;-65
2021/04/07 09:36:51;;;;;;;7.43;2.97;;;;;;;4.44;48.13;99053.56;3490360;41;20409;-64
2021/04/07 09:39:23;;;;;;;9.13;3.60;;;;;;;4.54;47.55;99029.94;3490990;41;20052;-65
2021/04/07 09:41:51;;;;;;;7.18;2.90;;;;;;;4.56;47.82;99038.47;3489762;41;20121;-64
2021/04/07 09:44:18;;;;;;;6.75;2.90;;;;;;;4.40;47.61;99044.34;3490604;41;20136;-65
2021/04/07 09:46:50;;;;;;;8.02;2.88;;;;;;;4.45;47.43;99063.06;3489546;41;20055;-66
2021/04/07 09:49:17;;;;;;;7.70;2.45;;;;;;;4.21;47.64;99044.47;3490540;41;20093;-65
2021/04/07 09:51:46;;;;;;;10.13;2.53;;;;;;;4.21;47.98;99049.72;3490415;41;20417;-65
2021/04/07 09:54:20;;;;;;;7.68;3.08;;;;;;;4.28;48.13;99058.59;3490351;41;20057;-65
2021/04/07 09:56:52;;;;;;;8.10;3.45;;;;;;;4.11;48.06;99069.84;3491673;41;20049;-65
2021/04/07 09:59:20;;;;;;;8.15;2.80;;;;;;;3.97;48.09;99072.00;3491911;41;20057;-66
2021/04/07 10:01:47;;;;;;;12.05;3.22;;;;;;;3.85;48.15;99065.28;3491948;41;20393;-66
2021/04/07 10:04:13;;;;;;;7.18;2.53;;;;;;;3.71;48.24;99076.19;3491890;41;20060;-66
2021/04/07 10:06:40;;;;;;;7.53;2.03;;;;;;;3.61;48.63;99093.72;3491835;41;20408;-65
2021/04/07 10:09:09;;;;;;;3.35;2.33;;;;;;;3.44;49.39;99087.41;3492103;41;20417;-65
2021/04/07 10:11:38;;;;;;;8.65;3.78;;;;;;;3.44;50.19;99087.41;3492235;41;20409;-66
2021/04/07 10:14:07;;;;;;;9.43;2.55;;;;;;;3.40;49.81;99080.81;3491917;41;20060;-65
2021/04/07 10:16:35;;;;;;;7.85;2.60;;;;;;;3.55;50.03;99091.66;3491924;41;20049;-65
2021/04/07 10:19:05;;;;;;;10.27;2.95;;;;;;;3.55;50.01;99100.34;3491953;41;20455;-65
2021/04/07 10:21:32;;;;;;;4.00;2.78;;;;;;;3.43;50.66;99099.66;3491679;41;20085;-66
2021/04/07 10:24:00;;;;;;;9.00;3.80;;;;;;;3.25;52.20;99106.53;3491928;41;20441;-66
2021/04/07 10:26:28;;;;;;;10.23;2.80;;;;;;;3.08;54.84;99130.75;3492008;41;20088;-65
2021/04/07 10:28:56;;;;;;;9.95;3.33;;;;;;;2.92;56.17;99113.00;3491865;41;20128;-65
2021/04/07 10:31:23;;;;;;;7.00;3.22;;;;;;;2.86;56.19;99119.59;3491819;41;20052;-64
2021/04/07 10:34:04;;;;;;;8.02;3.90;;;;;;;2.84;56.81;99115.47;3491704;41;20049;-65
2021/04/07 10:36:32;;;;;;;9.85;3.58;;;;;;;2.82;57.48;99122.63;3492065;41;20338;-65
2021/04/07 10:39:00;;;;;;;7.57;3.70;;;;;;;2.76;58.89;99123.16;3493350;41;20060;-65
2021/04/07 10:41:27;;;;;;;8.63;3.92;;;;;;;2.63;59.90;99131.22;3492746;41;20077;-65
2021/04/07 10:43:54;;;;;;;8.32;4.70;;;;;;;2.67;59.99;99133.44;3490753;41;20476;-65
2021/04/07 10:46:30;;;;;;;9.45;4.10;;;;;;;2.63;60.90;99139.88;3491538;41;20085;-64
2021/04/07 10:48:57;;;;;;;8.63;3.78;;;;;;;2.63;60.67;99133.84;3491188;41;20061;-64
2021/04/07 10:51:25;;;;;;;13.30;3.95;;;;;;;2.58;61.02;99139.47;3493793;41;20073;-64
2021/04/07 10:53:56;;;;;;;13.57;4.68;;;;;;;2.61;61.30;99152.25;3493724;41;20080;-65
2021/04/07 10:56:24;;;;;;;10.20;3.97;;;;;;;2.57;61.99;99150.88;3492409;41;20051;-65
2021/04/07 10:58:56;;;;;;;12.52;3.97;;;;;;;2.61;62.55;99152.25;3491779;41;20423;-65
2021/04/07 11:01:27;;;;;;;8.75;3.22;;;;;;;2.60;62.24;99153.19;3491004;41;20045;-64
2021/04/07 11:04:12;;;;;;;7.03;3.00;;;;;;;2.40;63.03;99152.31;3492069;41;20156;-66
2021/04/07 11:06:38;;;;;;;;;;;;;;;2.43;63.99;99140.78;3492259;41;20081;-65
2021/04/07 11:09:06;;;;;;;7.72;3.90;;;;;;;2.57;64.18;99165.69;3490947;41;20012;-65
2021/04/07 11:11:34;;;;;;;7.88;3.55;;;;;;;2.73;64.14;99151.19;3491727;41;20077;-66
2021/04/07 11:14:02;;;;;;;9.32;4.18;;;;;;;2.82;64.03;99154.78;3492153;41;20052;-66
2021/04/07 11:16:33;;;;;;;6.82;3.40;;;;;;;3.02;63.40;99144.34;3494322;41;20333;-66
2021/04/07 11:19:01;;;;;;;7.60;3.92;;;;;;;3.27;63.20;99141.22;3494468;41;20068;-65
2021/04/07 11:21:28;;;;;;;9.40;4.13;;;;;;;3.32;62.82;99152.06;3493897;41;20087;-64
2021/04/07 11:23:54;;;;;;;13.20;3.83;;;;;;;3.09;62.78;99161.94;3494261;41;20145;-64
2021/04/07 11:26:21;;;;;;;11.23;5.18;;;;;;;2.89;63.08;99163.69;3495436;41;20057;-66
2021/04/07 11:28:48;;;;;;;8.13;3.78;;;;;;;2.63;63.84;99157.34;3494135;41;20414;-65
2021/04/07 11:31:20;;;;;;;9.00;3.88;;;;;;;2.56;63.68;99166.66;3494569;41;20424;-65
2021/04/07 11:33:49;;;;;;;8.35;3.85;;;;;;;2.49;63.08;99161.16;3494218;41;20049;-65
2021/04/07 11:36:39;;;;;;;20.35;9.05;;;;;;;2.57;63.26;99160.47;3494790;41;20056;-65
2021/04/07 11:39:33;;;;;;;6.88;4.07;;;;;;;2.64;62.61;99169.41;3494069;41;20109;-64
2021/04/07 11:42:09;;;;;;;8.60;3.50;;;;;;;2.81;62.09;99170.56;3492839;41;20061;-65
2021/04/07 11:44:35;;;;;;;9.93;3.85;;;;;;;2.72;61.96;99172.19;3493197;41;20053;-65
2021/04/07 11:47:04;;;;;;;8.10;3.50;;;;;;;2.73;62.08;99181.66;3491066;41;20063;-65
2021/04/07 11:49:31;;;;;;;9.48;3.55;;;;;;;2.83;61.66;99186.94;3491815;41;20132;-65